Mozart, West Virginia
Current Conditions -  °F | °C
As of 8:05 AM on Friday 24 Oct 2014 (Local Time) from KHLG Reporting Station
Moderate Fog Moderate Fog  
Wind Chill: 37°   Ceiling: 200
Heat Index: 37°   Visibility: 0.25mi
Dew Point: 36°   Wind: 0mph
Humidity: 96%   Direction: NA
Pressure: 30.11"   Gusts: NA
Location:  40.0729°N, 80.6524°W
Report Text: KHLG 241205Z 00000KT 1/4SM R03/0800V1200FT FG VV002 03/02 A3011 RMK AO2 T00280022
Loading
Personal Weather Stations






























Interactive Weather Map
Tropical Storm Tracking
New forecast layout! Learn more

10-Day Weather Forecast

Advertisements
Track Severe Weather on mobile